Time;durP1;ratioP1;P1;durP2;ratioP2;P2;SDS_P1;SDS_P2;PMS_P1;PMS_P2;Temp;Humidity;BMP_temperature;BMP_pressure;BME280_temperature;BME280_humidity;BME280_pressure;Samples;Min_cycle;Max_cycle;Signal;HPM_P1;HPM_P2
2021/10/06 00:00:39;;;;;;;;;;;17.80;70.90;;;;;;4981726;28;95870;-57
2021/10/06 00:03:10;;;;;;;;;;;17.80;70.70;;;;;;5014702;27;95822;-56
2021/10/06 00:05:40;;;;;;;;;;;17.90;71.20;;;;;;4987425;28;95949;-48
2021/10/06 00:08:13;;;;;;;;;;;18.00;62.00;;;;;;4986170;28;95964;-56
2021/10/06 00:10:44;;;;;;;;;;;17.90;70.10;;;;;;4980241;28;100278;-58
2021/10/06 00:13:14;;;;;;;;;;;17.90;69.90;;;;;;4982843;28;97863;-58
2021/10/06 00:15:46;;;;;;;;;;;18.00;70.00;;;;;;4981686;28;95933;-59
2021/10/06 00:18:16;;;;;;;;;;;18.00;69.80;;;;;;4982841;28;95833;-57
2021/10/06 00:20:46;;;;;;;;;;;18.00;69.80;;;;;;4981559;28;97168;-57
2021/10/06 00:23:16;;;;;;;;;;;18.00;69.70;;;;;;4982670;28;96299;-61
2021/10/06 00:25:47;;;;;;;;;;;18.00;69.70;;;;;;4985959;28;95717;-56
2021/10/06 00:28:18;;;;;;;;;;;18.00;69.60;;;;;;4980522;28;95958;-57
2021/10/06 00:30:47;;;;;;;;;;;18.10;69.80;;;;;;4980897;28;96745;-58
2021/10/06 00:33:17;;;;;;;;;;;18.10;69.80;;;;;;4985676;28;95670;-58
2021/10/06 00:35:46;;;;;;;;;;;18.10;69.90;;;;;;4985850;28;95816;-57
2021/10/06 00:38:16;;;;;;;;;;;18.30;70.10;;;;;;4980250;28;96383;-57
2021/10/06 00:40:47;;;;;;;;;;;18.30;70.00;;;;;;4989130;28;95759;-56
2021/10/06 00:43:17;;;;;;;;;;;18.40;70.00;;;;;;4990769;28;95578;-56
2021/10/06 00:45:48;;;;;;;;;;;18.50;69.90;;;;;;4987159;28;95216;-57
2021/10/06 00:48:18;;;;;;;;;;;18.60;69.70;;;;;;4989924;28;96383;-54
2021/10/06 00:50:48;;;;;;;;;;;18.70;69.60;;;;;;4985732;28;96022;-56
2021/10/06 00:53:23;;;;;;;;;;;18.80;69.30;;;;;;4985381;28;95911;-61
2021/10/06 00:55:54;;;;;;;;;;;18.90;69.30;;;;;;4984180;28;95763;-58
2021/10/06 00:58:24;;;;;;;;;;;19.00;69.10;;;;;;4990195;28;96022;-55
2021/10/06 01:00:55;;;;;;;;;;;19.10;68.90;;;;;;4981716;28;95821;-47
2021/10/06 01:03:26;;;;;;;;;;;19.10;68.80;;;;;;4989966;28;95529;-50
2021/10/06 01:05:57;;;;;;;;;;;19.20;68.70;;;;;;4988542;28;96471;-58
2021/10/06 01:08:28;;;;;;;;;;;19.20;68.50;;;;;;4988407;28;95884;-47
2021/10/06 01:10:59;;;;;;;;;;;19.30;68.60;;;;;;4983525;28;96276;-58
2021/10/06 01:13:29;;;;;;;;;;;19.30;68.60;;;;;;4984014;28;96252;-49
2021/10/06 01:16:05;;;;;;;;;;;19.40;68.50;;;;;;4980793;28;96152;-61
2021/10/06 01:18:40;;;;;;;;;;;19.50;68.60;;;;;;4987691;28;96276;-59
2021/10/06 01:21:14;;;;;;;;;;;19.50;68.50;;;;;;4985779;28;95578;-50
2021/10/06 01:23:45;;;;;;;;;;;19.50;68.50;;;;;;4988137;28;97449;-60
2021/10/06 01:26:18;;;;;;;;;;;19.60;68.50;;;;;;4984660;28;95825;-49
2021/10/06 01:28:50;;;;;;;;;;;19.60;68.40;;;;;;4987156;28;96457;-61
2021/10/06 01:31:27;;;;;;;;;;;19.60;68.30;;;;;;4982474;28;97300;-58
2021/10/06 01:33:56;;;;;;;;;;;19.60;68.20;;;;;;4987830;28;95641;-55
2021/10/06 01:36:26;;;;;;;;;;;19.70;68.10;;;;;;4987099;28;96019;-48
2021/10/06 01:38:56;;;;;;;;;;;19.70;68.10;;;;;;4979593;28;95943;-49
2021/10/06 01:41:30;;;;;;;;;;;19.70;67.80;;;;;;4985047;28;96192;-47
2021/10/06 01:44:01;;;;;;;;;;;19.70;67.90;;;;;;5021210;27;98289;-48
2021/10/06 01:46:32;;;;;;;;;;;19.80;67.80;;;;;;4984333;28;96031;-62
2021/10/06 01:49:02;;;;;;;;;;;19.80;67.70;;;;;;4986823;28;96518;-47
2021/10/06 01:51:33;;;;;;;;;;;19.80;67.70;;;;;;4987584;28;96143;-49
2021/10/06 01:54:04;;;;;;;;;;;19.90;67.60;;;;;;4984101;28;95605;-62
2021/10/06 01:56:35;;;;;;;;;;;19.90;67.50;;;;;;4986610;28;96498;-50
2021/10/06 01:59:05;;;;;;;;;;;19.90;67.40;;;;;;4986854;28;95878;-49
2021/10/06 02:01:36;;;;;;;;;;;19.90;67.30;;;;;;4972247;28;96175;-60
2021/10/06 02:04:07;;;;;;;;;;;20.00;67.20;;;;;;4985391;28;95685;-49
2021/10/06 02:06:38;;;;;;;;;;;20.00;67.30;;;;;;4980536;28;95880;-62
2021/10/06 02:09:09;;;;;;;;;;;20.10;67.40;;;;;;5013358;27;95892;-61
2021/10/06 02:11:39;;;;;;;;;;;20.30;59.60;;;;;;4977863;28;95913;-60
2021/10/06 02:14:10;;;;;;;;;;;20.20;66.90;;;;;;4982406;28;96176;-59
2021/10/06 02:16:42;;;;;;;;;;;20.30;67.20;;;;;;4982776;28;96295;-47
2021/10/06 02:19:12;;;;;;;;;;;20.40;59.30;;;;;;4986905;28;96883;-48
2021/10/06 02:21:43;;;;;;;;;;;20.40;67.30;;;;;;4988577;28;95423;-62
2021/10/06 02:24:12;;;;;;;;;;;20.50;67.20;;;;;;4987373;28;95995;-59
2021/10/06 02:26:42;;;;;;;;;;;20.50;59.80;;;;;;4983554;28;95775;-49
2021/10/06 02:29:12;;;;;;;;;;;20.40;59.40;;;;;;4988435;28;96026;-60
2021/10/06 02:31:42;;;;;;;;;;;20.30;58.70;;;;;;4983848;28;95825;-47
2021/10/06 02:34:13;;;;;;;;;;;20.40;54.90;;;;;;4985791;28;95339;-52
2021/10/06 02:36:42;;;;;;;;;;;20.30;57.50;;;;;;4987649;28;95350;-51
2021/10/06 02:39:12;;;;;;;;;;;20.30;56.70;;;;;;4990762;28;95858;-50
2021/10/06 02:41:43;;;;;;;;;;;20.30;59.30;;;;;;4995209;28;95648;-51
2021/10/06 02:44:13;;;;;;;;;;;20.40;59.40;;;;;;4988885;28;95908;-52
2021/10/06 02:46:44;;;;;;;;;;;20.30;57.50;;;;;;4983067;28;95774;-51
2021/10/06 02:49:14;;;;;;;;;;;20.50;48.50;;;;;;4988397;28;96062;-48
2021/10/06 02:51:44;;;;;;;;;;;20.40;57.20;;;;;;4986670;28;96241;-48
2021/10/06 02:54:15;;;;;;;;;;;20.50;59.20;;;;;;4987440;28;95639;-48
2021/10/06 02:56:44;;;;;;;;;;;20.50;54.10;;;;;;4986760;28;95800;-49
2021/10/06 02:59:15;;;;;;;;;;;20.60;57.80;;;;;;4986698;28;96508;-50
2021/10/06 03:01:46;;;;;;;;;;;20.50;55.30;;;;;;4981616;28;95829;-50
2021/10/06 03:04:17;;;;;;;;;;;20.60;45.30;;;;;;4988624;28;95430;-49
2021/10/06 03:06:48;;;;;;;;;;;20.60;55.70;;;;;;4985356;28;95832;-53
2021/10/06 03:09:18;;;;;;;;;;;20.70;56.60;;;;;;4984615;28;95911;-50
2021/10/06 03:11:49;;;;;;;;;;;20.70;54.60;;;;;;4980678;28;95743;-51
2021/10/06 03:14:20;;;;;;;;;;;20.90;57.40;;;;;;4987345;28;95678;-51
2021/10/06 03:16:51;;;;;;;;;;;20.70;52.00;;;;;;4974049;28;95871;-51
2021/10/06 03:19:22;;;;;;;;;;;20.80;53.70;;;;;;4988307;28;96426;-50
2021/10/06 03:21:51;;;;;;;;;;;20.80;54.50;;;;;;4984546;28;95353;-48
2021/10/06 03:24:21;;;;;;;;;;;21.00;54.00;;;;;;4984960;28;95746;-49
2021/10/06 03:26:50;;;;;;;;;;;21.00;53.40;;;;;;4984403;28;95802;-49
2021/10/06 03:29:21;;;;;;;;;;;21.00;54.80;;;;;;4986939;28;96501;-50
2021/10/06 03:31:51;;;;;;;;;;;21.00;56.30;;;;;;4980902;28;95995;-58
2021/10/06 03:34:22;;;;;;;;;;;21.10;53.90;;;;;;4981952;28;95962;-54
2021/10/06 03:36:51;;;;;;;;;;;21.10;53.60;;;;;;4984101;28;95796;-49
2021/10/06 03:39:21;;;;;;;;;;;21.20;54.20;;;;;;4985838;28;96444;-50
2021/10/06 03:41:52;;;;;;;;;;;21.10;52.00;;;;;;4966831;28;96682;-52
2021/10/06 03:44:23;;;;;;;;;;;21.20;52.90;;;;;;4981690;28;95996;-50
2021/10/06 03:46:54;;;;;;;;;;;21.10;52.10;;;;;;4977604;28;99001;-48
2021/10/06 03:49:24;;;;;;;;;;;21.20;53.60;;;;;;4985423;28;95897;-48
2021/10/06 03:51:55;;;;;;;;;;;21.10;52.70;;;;;;5001612;28;98088;-47
2021/10/06 03:54:25;;;;;;;;;;;21.10;52.30;;;;;;4986229;28;95483;-48
2021/10/06 03:56:55;;;;;;;;;;;21.10;51.90;;;;;;4984896;28;95324;-50
2021/10/06 03:59:27;;;;;;;;;;;21.10;52.70;;;;;;4983367;28;95781;-50
2021/10/06 04:01:59;;;;;;;;;;;21.20;53.70;;;;;;4973822;28;97658;-47
2021/10/06 04:04:30;;;;;;;;;;;21.20;52.00;;;;;;4974014;28;95766;-48
2021/10/06 04:07:00;;;;;;;;;;;21.20;54.20;;;;;;4976433;28;95959;-47
2021/10/06 04:09:30;;;;;;;;;;;21.20;52.30;;;;;;4976193;28;97076;-46
2021/10/06 04:12:00;;;;;;;;;;;21.10;52.00;;;;;;4977278;28;95483;-48
2021/10/06 04:14:30;;;;;;;;;;;21.10;52.50;;;;;;5012353;27;95915;-47
2021/10/06 04:17:02;;;;;;;;;;;21.10;52.00;;;;;;4976548;28;96027;-55
2021/10/06 04:19:32;;;;;;;;;;;21.10;52.60;;;;;;4982235;28;95916;-56
2021/10/06 04:22:03;;;;;;;;;;;21.00;50.70;;;;;;4987424;28;95726;-47
2021/10/06 04:24:33;;;;;;;;;;;21.10;45.70;;;;;;4982891;28;95804;-47
2021/10/06 04:27:04;;;;;;;;;;;21.10;51.30;;;;;;4984929;28;95618;-48
2021/10/06 04:29:35;;;;;;;;;;;21.10;52.70;;;;;;4984947;28;95881;-48
2021/10/06 04:32:06;;;;;;;;;;;21.10;54.20;;;;;;4977315;28;95438;-47
2021/10/06 04:34:37;;;;;;;;;;;21.20;54.20;;;;;;4982021;28;95874;-48
2021/10/06 04:37:08;;;;;;;;;;;21.20;47.60;;;;;;4977896;28;97492;-48
2021/10/06 04:39:41;;;;;;;;;;;21.30;52.60;;;;;;4982760;28;95817;-46
2021/10/06 04:42:12;;;;;;;;;;;21.20;53.50;;;;;;4983725;28;95340;-47
2021/10/06 04:44:43;;;;;;;;;;;21.30;54.00;;;;;;4983258;28;95956;-47
2021/10/06 04:47:18;;;;;;;;;;;21.30;52.30;;;;;;4976095;28;95789;-50
2021/10/06 04:49:49;;;;;;;;;;;21.20;51.60;;;;;;5012646;27;97111;-49
2021/10/06 04:52:20;;;;;;;;;;;21.20;51.90;;;;;;4972506;28;97699;-49
2021/10/06 04:54:53;;;;;;;;;;;21.20;53.30;;;;;;4983382;28;96726;-51
2021/10/06 04:57:23;;;;;;;;;;;21.20;51.10;;;;;;4984840;28;95574;-48
2021/10/06 04:59:56;;;;;;;;;;;21.20;52.90;;;;;;4984740;28;95811;-47
2021/10/06 05:02:27;;;;;;;;;;;21.30;53.80;;;;;;4979149;28;95617;-47
2021/10/06 05:04:59;;;;;;;;;;;21.30;50.80;;;;;;4982075;28;95636;-47
2021/10/06 05:07:30;;;;;;;;;;;21.20;50.20;;;;;;4985379;28;96069;-48
2021/10/06 05:10:00;;;;;;;;;;;21.20;51.30;;;;;;5009585;27;96463;-47
2021/10/06 05:12:31;;;;;;;;;;;21.00;49.80;;;;;;4977131;28;98920;-52
2021/10/06 05:15:03;;;;;;;;;;;21.00;49.70;;;;;;4985356;28;96096;-47
2021/10/06 05:17:34;;;;;;;;;;;20.90;49.80;;;;;;4982851;28;97978;-46
2021/10/06 05:20:08;;;;;;;;;;;20.80;49.60;;;;;;4984063;28;97195;-46
2021/10/06 05:22:40;;;;;;;;;;;20.80;49.90;;;;;;4982343;28;95951;-49
2021/10/06 05:25:11;;;;;;;;;;;20.80;50.70;;;;;;4987521;28;96457;-49
2021/10/06 05:27:42;;;;;;;;;;;20.80;50.60;;;;;;4984915;28;95881;-46
2021/10/06 05:30:13;;;;;;;;;;;20.90;53.30;;;;;;4984530;28;96145;-51
2021/10/06 05:32:46;;;;;;;;;;;20.80;50.50;;;;;;4988149;28;95241;-48
2021/10/06 05:35:16;;;;;;;;;;;20.80;52.50;;;;;;4987489;28;95652;-46
2021/10/06 05:37:47;;;;;;;;;;;20.80;52.40;;;;;;4985957;28;95928;-45
2021/10/06 05:40:18;;;;;;;;;;;20.90;53.20;;;;;;5018374;27;98823;-46
2021/10/06 05:42:49;;;;;;;;;;;20.80;51.60;;;;;;4987585;28;95412;-46
2021/10/06 05:45:19;;;;;;;;;;;20.70;51.10;;;;;;4979829;28;95886;-46
2021/10/06 05:47:49;;;;;;;;;;;20.60;51.80;;;;;;4981591;28;97094;-46
2021/10/06 05:50:20;;;;;;;;;;;20.70;52.20;;;;;;4979488;28;96419;-48
2021/10/06 05:52:51;;;;;;;;;;;20.70;50.80;;;;;;4984822;28;95729;-48
2021/10/06 05:55:20;;;;;;;;;;;20.60;52.30;;;;;;4981498;28;95845;-47
2021/10/06 05:57:50;;;;;;;;;;;20.70;53.80;;;;;;4980426;28;95631;-48
2021/10/06 06:00:20;;;;;;;;;;;20.70;54.70;;;;;;4976891;28;95818;-47
2021/10/06 06:02:51;;;;;;;;;;;20.80;54.70;;;;;;4984296;28;95477;-48
2021/10/06 06:05:21;;;;;;;;;;;20.70;52.50;;;;;;4986457;28;95374;-47
2021/10/06 06:07:57;;;;;;;;;;;20.70;53.40;;;;;;4985805;28;95386;-47
2021/10/06 06:10:27;;;;;;;;;;;20.60;52.30;;;;;;4981921;28;95936;-48
2021/10/06 06:12:57;;;;;;;;;;;20.60;53.30;;;;;;4975818;28;95989;-47
2021/10/06 06:15:29;;;;;;;;;;;20.60;53.20;;;;;;4983801;28;95326;-47
2021/10/06 06:18:01;;;;;;;;;;;20.70;54.00;;;;;;4987861;28;95829;-48
2021/10/06 06:20:32;;;;;;;;;;;20.60;53.00;;;;;;4987972;28;96677;-48
2021/10/06 06:23:03;;;;;;;;;;;20.60;53.00;;;;;;5018653;27;96251;-48
2021/10/06 06:25:34;;;;;;;;;;;20.50;53.60;;;;;;4988089;28;95824;-47
2021/10/06 06:28:05;;;;;;;;;;;20.60;54.90;;;;;;4984365;28;95709;-47
2021/10/06 06:30:36;;;;;;;;;;;20.50;54.20;;;;;;4981428;27;95819;-49
2021/10/06 06:33:07;;;;;;;;;;;20.40;53.00;;;;;;4987668;28;95935;-47
2021/10/06 06:35:36;;;;;;;;;;;20.50;53.70;;;;;;4986588;28;96179;-46
2021/10/06 06:38:05;;;;;;;;;;;20.40;52.60;;;;;;4986913;28;95725;-48
2021/10/06 06:40:40;;;;;;;;;;;20.30;51.90;;;;;;4985803;28;95822;-47
2021/10/06 06:43:10;;;;;;;;;;;20.30;52.10;;;;;;4986753;28;95954;-56
2021/10/06 06:45:42;;;;;;;;;;;20.30;51.90;;;;;;4980969;27;95805;-48
2021/10/06 06:48:16;;;;;;;;;;;20.20;51.80;;;;;;4986583;28;95647;-51
2021/10/06 06:50:54;;;;;;;;;;;20.20;52.40;;;;;;4985305;28;95969;-46
2021/10/06 06:53:28;;;;;;;;;;;20.20;52.60;;;;;;4986125;28;95757;-47
2021/10/06 06:55:59;;;;;;;;;;;20.30;53.70;;;;;;4985836;28;95335;-47
2021/10/06 06:58:31;;;;;;;;;;;20.20;52.60;;;;;;4982588;28;95237;-47
2021/10/06 07:01:01;;;;;;;;;;;20.30;53.00;;;;;;4980420;28;96402;-49
2021/10/06 07:03:32;;;;;;;;;;;20.30;53.20;;;;;;4983940;28;95724;-47
2021/10/06 07:06:03;;;;;;;;;;;20.30;53.10;;;;;;4986381;28;95741;-47
2021/10/06 07:08:33;;;;;;;;;;;20.40;53.00;;;;;;4987977;28;95441;-50
2021/10/06 07:11:04;;;;;;;;;;;20.40;53.60;;;;;;4978399;28;97099;-46
2021/10/06 07:13:34;;;;;;;;;;;20.40;53.00;;;;;;4976061;28;95332;-47
2021/10/06 07:16:05;;;;;;;;;;;20.40;54.40;;;;;;4972097;28;95699;-48
2021/10/06 07:18:35;;;;;;;;;;;20.40;53.90;;;;;;4980020;28;96203;-44
2021/10/06 07:21:06;;;;;;;;;;;20.40;54.30;;;;;;4980506;28;95963;-47
2021/10/06 07:23:36;;;;;;;;;;;20.40;53.60;;;;;;4979630;28;95412;-56
2021/10/06 07:26:05;;;;;;;;;;;20.40;54.20;;;;;;4987359;28;95738;-48
2021/10/06 07:28:35;;;;;;;;;;;20.40;53.60;;;;;;4987296;28;95354;-46
2021/10/06 07:31:04;;;;;;;;;;;20.40;54.20;;;;;;4980230;27;96403;-45
2021/10/06 07:33:36;;;;;;;;;;;20.40;54.50;;;;;;4982244;28;97343;-49
2021/10/06 07:36:06;;;;;;;;;;;20.40;54.50;;;;;;5015426;27;96166;-45
2021/10/06 07:38:35;;;;;;;;;;;20.30;55.30;;;;;;4984641;28;95875;-45
2021/10/06 07:41:06;;;;;;;;;;;20.40;54.50;;;;;;4978025;28;96278;-45
2021/10/06 07:43:37;;;;;;;;;;;20.30;55.20;;;;;;4986917;28;95848;-45
2021/10/06 07:46:07;;;;;;;;;;;20.30;54.10;;;;;;4978401;28;95676;-46
2021/10/06 07:48:38;;;;;;;;;;;20.30;54.40;;;;;;4986442;28;95276;-46
2021/10/06 07:51:09;;;;;;;;;;;20.30;54.90;;;;;;4983878;28;95933;-48
2021/10/06 07:53:40;;;;;;;;;;;20.30;56.00;;;;;;4983446;28;95553;-47
2021/10/06 07:56:10;;;;;;;;;;;20.20;55.80;;;;;;4983035;28;96106;-58
2021/10/06 07:58:41;;;;;;;;;;;20.20;56.00;;;;;;4985211;28;95192;-47
2021/10/06 08:01:12;;;;;;;;;;;20.20;56.10;;;;;;4983683;28;95949;-46
2021/10/06 08:03:54;;;;;;;;;;;20.10;55.50;;;;;;4985581;28;95994;-47
2021/10/06 08:06:24;;;;;;;;;;;20.00;54.90;;;;;;4982719;28;95986;-46
2021/10/06 08:08:55;;;;;;;;;;;20.00;56.30;;;;;;4982027;28;95818;-46
2021/10/06 08:11:26;;;;;;;;;;;20.00;57.00;;;;;;4975134;28;96071;-45
2021/10/06 08:13:56;;;;;;;;;;;19.90;56.30;;;;;;4979827;28;96511;-46
2021/10/06 08:16:26;;;;;;;;;;;19.90;56.90;;;;;;4976719;28;95886;-47
2021/10/06 08:18:57;;;;;;;;;;;19.90;56.40;;;;;;4985151;28;95477;-47
2021/10/06 08:21:29;;;;;;;;;;;19.90;56.90;;;;;;4983883;28;96650;-46
2021/10/06 08:23:59;;;;;;;;;;;19.80;57.20;;;;;;5014250;27;96284;-46
2021/10/06 08:26:29;;;;;;;;;;;19.80;56.60;;;;;;5014700;27;96226;-47
2021/10/06 08:28:59;;;;;;;;;;;19.80;56.70;;;;;;4982390;28;96373;-46
2021/10/06 08:31:28;;;;;;;;;;;19.70;56.40;;;;;;4976474;28;95770;-46
2021/10/06 08:33:59;;;;;;;;;;;19.60;56.30;;;;;;4982569;28;96375;-46
2021/10/06 08:36:30;;;;;;;;;;;19.60;57.20;;;;;;4982332;28;95870;-46
2021/10/06 08:39:08;;;;;;;;;;;19.60;57.00;;;;;;4983844;28;95730;-47
2021/10/06 08:41:39;;;;;;;;;;;19.50;56.90;;;;;;4981492;28;95894;-46
2021/10/06 08:44:09;;;;;;;;;;;19.60;57.30;;;;;;5014125;27;95489;-47
2021/10/06 08:46:42;;;;;;;;;;;19.40;57.30;;;;;;4979650;28;96033;-47
2021/10/06 08:49:12;;;;;;;;;;;19.40;57.70;;;;;;4983111;28;96181;-47
2021/10/06 08:51:43;;;;;;;;;;;19.50;48.10;;;;;;4983764;28;96029;-46
2021/10/06 08:54:14;;;;;;;;;;;19.30;58.00;;;;;;4983326;28;96440;-47
2021/10/06 08:56:47;;;;;;;;;;;19.30;58.10;;;;;;4983516;28;96236;-47
2021/10/06 08:59:18;;;;;;;;;;;19.20;57.70;;;;;;4985944;28;97484;-47
2021/10/06 09:01:49;;;;;;;;;;;19.30;58.20;;;;;;4970979;28;96173;-49
2021/10/06 09:04:30;;;;;;;;;;;19.30;58.80;;;;;;4999827;28;96358;-46
2021/10/06 09:07:02;;;;;;;;;;;19.20;58.70;;;;;;4967407;28;95803;-58
2021/10/06 09:09:33;;;;;;;;;;;19.20;59.20;;;;;;4966339;28;97477;-47
2021/10/06 09:12:17;;;;;;;;;;;19.20;58.70;;;;;;4958453;28;96597;-54
2021/10/06 09:14:48;;;;;;;;;;;19.20;58.90;;;;;;4964787;28;98380;-57
2021/10/06 09:17:20;;;;;;;;;;;19.20;58.90;;;;;;4962513;28;95908;-46
2021/10/06 09:19:56;;;;;;;;;;;19.20;49.30;;;;;;4997378;28;95366;-58
2021/10/06 09:22:32;;;;;;;;;;;19.10;58.50;;;;;;4961152;28;96837;-58
2021/10/06 09:25:03;;;;;;;;;;;19.10;58.70;;;;;;4963816;28;96414;-58
2021/10/06 09:27:34;;;;;;;;;;;19.10;58.50;;;;;;4966632;28;96594;-46
2021/10/06 09:30:05;;;;;;;;;;;19.10;59.00;;;;;;4963883;28;95378;-56
2021/10/06 09:32:39;;;;;;;;;;;19.00;58.20;;;;;;4965427;28;95876;-59
2021/10/06 09:35:15;;;;;;;;;;;19.00;58.70;;;;;;4966385;28;96437;-47
2021/10/06 09:37:46;;;;;;;;;;;19.00;58.20;;;;;;4965991;28;95899;-58
2021/10/06 09:40:19;;;;;;;;;;;19.00;58.90;;;;;;4968288;28;96061;-46
2021/10/06 09:42:52;;;;;;;;;;;19.00;58.40;;;;;;4968454;28;96461;-47
2021/10/06 09:45:34;;;;;;;;;;;19.00;58.20;;;;;;4956203;28;98485;-46
2021/10/06 09:48:04;;;;;;;;;;;19.00;58.00;;;;;;4988122;28;98354;-46
2021/10/06 09:50:36;;;;;;;;;;;18.90;58.90;;;;;;4981020;28;96089;-59
2021/10/06 09:53:09;;;;;;;;;;;18.90;58.90;;;;;;4979011;28;95763;-58
2021/10/06 09:55:39;;;;;;;;;;;18.90;59.40;;;;;;4976793;28;95788;-59
2021/10/06 09:58:11;;;;;;;;;;;18.90;60.30;;;;;;4986713;28;95473;-46
2021/10/06 10:00:43;;;;;;;;;;;18.80;59.70;;;;;;4976357;28;96070;-47
2021/10/06 10:03:15;;;;;;;;;;;18.70;59.80;;;;;;4974931;28;95889;-59
2021/10/06 10:05:46;;;;;;;;;;;18.70;60.00;;;;;;4976295;28;96149;-58
2021/10/06 10:08:17;;;;;;;;;;;18.70;61.00;;;;;;4979388;28;95390;-59
2021/10/06 10:10:49;;;;;;;;;;;18.60;61.50;;;;;;4977452;28;96034;-46
2021/10/06 10:13:22;;;;;;;;;;;18.60;62.30;;;;;;4979229;28;96028;-47
2021/10/06 10:15:53;;;;;;;;;;;18.50;62.90;;;;;;4978686;28;96409;-46
2021/10/06 10:18:24;;;;;;;;;;;18.40;63.10;;;;;;4980110;28;97213;-61
2021/10/06 10:20:55;;;;;;;;;;;18.40;63.00;;;;;;4983337;28;95285;-61
2021/10/06 10:23:24;;;;;;;;;;;18.60;63.50;;;;;;4975257;28;96314;-51
2021/10/06 10:25:54;;;;;;;;;;;18.70;63.30;;;;;;4975585;28;95677;-50
2021/10/06 10:28:24;;;;;;;;;;;18.80;63.30;;;;;;4975491;28;95845;-49
2021/10/06 10:30:53;;;;;;;;;;;19.00;63.10;;;;;;4979335;28;96861;-60
2021/10/06 10:33:45;;;;;;;;;;;19.10;63.20;;;;;;4982996;28;95843;-60
2021/10/06 10:36:18;;;;;;;;;;;19.20;63.20;;;;;;4980269;28;98095;-59
2021/10/06 10:38:48;;;;;;;;;;;19.30;63.30;;;;;;4972879;28;97261;-47
2021/10/06 10:41:38;;;;;;;;;;;19.40;63.10;;;;;;5006327;28;95725;-59
2021/10/06 10:44:10;;;;;;;;;;;19.50;63.20;;;;;;4981283;28;95766;-57
2021/10/06 10:47:10;;;;;;;;;;;19.50;63.20;;;;;;4985929;28;97399;-47
2021/10/06 10:49:45;;;;;;;;;;;19.60;63.30;;;;;;4972274;28;97100;-61
2021/10/06 10:52:17;;;;;;;;;;;19.70;63.20;;;;;;4988584;28;96072;-62
2021/10/06 10:54:47;;;;;;;;;;;19.80;63.40;;;;;;4976062;28;96440;-49
2021/10/06 10:57:31;;;;;;;;;;;19.80;63.20;;;;;;4976142;28;96060;-60
2021/10/06 11:00:02;;;;;;;;;;;19.90;63.30;;;;;;4975886;28;95697;-48
2021/10/06 11:02:41;;;;;;;;;;;19.90;63.20;;;;;;4974418;28;95862;-59
2021/10/06 11:05:12;;;;;;;;;;;20.00;63.10;;;;;;4976920;28;95852;-48
2021/10/06 11:07:52;;;;;;;;;;;20.10;63.30;;;;;;4975271;28;95355;-62
2021/10/06 11:10:33;;;;;;;;;;;20.10;62.50;;;;;;4978261;28;95875;-47
2021/10/06 11:13:06;;;;;;;;;;;20.10;63.20;;;;;;4979615;28;95943;-61
2021/10/06 11:15:46;;;;;;;;;;;20.20;63.30;;;;;;4978268;28;96446;-48
2021/10/06 11:18:19;;;;;;;;;;;20.30;63.20;;;;;;4985628;28;97323;-61
2021/10/06 11:20:52;;;;;;;;;;;20.30;63.20;;;;;;4983828;28;95795;-49
2021/10/06 11:23:41;;;;;;;;;;;20.40;63.40;;;;;;4986181;28;95844;-48
2021/10/06 11:26:15;;;;;;;;;;;20.40;63.30;;;;;;4979765;28;96216;-59
2021/10/06 11:28:48;;;;;;;;;;;20.40;63.30;;;;;;4986280;28;95910;-59
2021/10/06 11:31:23;;;;;;;;;;;20.50;63.30;;;;;;4982093;28;95805;-52
2021/10/06 11:33:54;;;;;;;;;;;20.50;63.10;;;;;;4981297;28;95692;-61
2021/10/06 11:36:38;;;;;;;;;;;20.50;62.90;;;;;;4984552;28;96181;-62
2021/10/06 11:39:10;;;;;;;;;;;20.50;62.90;;;;;;4984109;28;96292;-51
2021/10/06 11:41:44;;;;;;;;;;;20.50;62.80;;;;;;4979980;28;95372;-62
2021/10/06 11:44:18;;;;;;;;;;;20.60;62.70;;;;;;4987260;28;95593;-62
2021/10/06 11:46:55;;;;;;;;;;;20.60;54.40;;;;;;4981852;28;97019;-61
2021/10/06 11:49:37;;;;;;;;;;;20.60;62.50;;;;;;4985720;28;96218;-50
2021/10/06 11:52:08;;;;;;;;;;;20.60;63.00;;;;;;4970102;28;96125;-51
2021/10/06 11:54:38;;;;;;;;;;;20.60;62.30;;;;;;4983875;28;95868;-51
2021/10/06 11:57:09;;;;;;;;;;;20.60;62.30;;;;;;4984135;28;96041;-61
2021/10/06 11:59:44;;;;;;;;;;;20.60;62.20;;;;;;4988182;28;95957;-60
2021/10/06 12:02:16;;;;;;;;;;;20.60;62.50;;;;;;4985332;28;96409;-48
2021/10/06 12:04:54;;;;;;;;;;;20.60;62.60;;;;;;4990070;28;95279;-61
2021/10/06 12:07:25;;;;;;;;;;;20.60;62.70;;;;;;5022061;27;96465;-48
2021/10/06 12:09:58;;;;;;;;;;;20.60;62.80;;;;;;4985747;28;96003;-59
2021/10/06 12:12:32;;;;;;;;;;;20.60;63.50;;;;;;4974974;28;95861;-59
2021/10/06 12:15:06;;;;;;;;;;;20.60;63.80;;;;;;4983259;28;96465;-49
2021/10/06 12:17:36;;;;;;;;;;;20.50;64.00;;;;;;4978585;28;96615;-59
2021/10/06 12:20:09;;;;;;;;;;;20.50;55.80;;;;;;4974068;28;95473;-59
2021/10/06 12:22:46;;;;;;;;;;;20.30;64.10;;;;;;4975482;28;95989;-60
2021/10/06 12:25:16;;;;;;;;;;;20.20;64.40;;;;;;4974747;28;95671;-59
2021/10/06 12:27:53;;;;;;;;;;;20.10;64.70;;;;;;4979714;28;96109;-60
2021/10/06 12:30:27;;;;;;;;;;;20.10;64.80;;;;;;4981238;28;95290;-59
2021/10/06 12:33:00;;;;;;;;;;;20.10;65.10;;;;;;4990465;28;95725;-60
2021/10/06 12:35:37;;;;;;;;;;;20.00;65.10;;;;;;4992389;28;95550;-61
2021/10/06 12:38:08;;;;;;;;;;;20.00;65.20;;;;;;4992360;28;95989;-59
2021/10/06 12:40:42;;;;;;;;;;;19.90;65.40;;;;;;4991652;28;95798;-47
2021/10/06 12:43:15;;;;;;;;;;;19.90;65.50;;;;;;4990920;28;95926;-60
2021/10/06 12:46:04;;;;;;;;;;;19.80;65.70;;;;;;4985991;28;95739;-60
2021/10/06 12:48:44;;;;;;;;;;;19.80;65.90;;;;;;4991611;28;96026;-60
2021/10/06 12:51:16;;;;;;;;;;;19.80;66.10;;;;;;4991483;28;95292;-62
2021/10/06 12:53:50;;;;;;;;;;;19.70;66.00;;;;;;4989378;28;95690;-60
2021/10/06 12:56:23;;;;;;;;;;;19.70;66.20;;;;;;4992019;28;95732;-59
2021/10/06 12:59:09;;;;;;;;;;;19.60;66.40;;;;;;4990529;28;95871;-60
2021/10/06 13:01:40;;;;;;;;;;;19.60;66.50;;;;;;4984606;28;95901;-59
2021/10/06 13:04:13;;;;;;;;;;;19.60;66.60;;;;;;4990847;28;95769;-59
2021/10/06 13:06:45;;;;;;;;;;;19.50;66.60;;;;;;4990879;28;97694;-60
2021/10/06 13:09:16;;;;;;;;;;;19.50;66.70;;;;;;4991512;28;95875;-60
2021/10/06 13:11:48;;;;;;;;;;;19.50;66.80;;;;;;4982084;28;95994;-60
2021/10/06 13:14:19;;;;;;;;;;;19.40;66.80;;;;;;4990073;28;95476;-60
2021/10/06 13:16:50;;;;;;;;;;;19.40;67.00;;;;;;4986979;28;95566;-60
2021/10/06 13:19:22;;;;;;;;;;;19.40;66.80;;;;;;4989577;28;97986;-59
2021/10/06 13:21:54;;;;;;;;;;;19.40;67.00;;;;;;4991117;28;96069;-59
2021/10/06 13:24:23;;;;;;;;;;;19.30;67.10;;;;;;4991267;28;98385;-60
2021/10/06 13:26:53;;;;;;;;;;;19.30;67.20;;;;;;4992005;28;95732;-59
2021/10/06 13:29:26;;;;;;;;;;;19.30;67.20;;;;;;4990813;28;95882;-61
2021/10/06 13:31:58;;;;;;;;;;;19.20;67.10;;;;;;4993615;28;95708;-60
2021/10/06 13:34:28;;;;;;;;;;;19.30;67.20;;;;;;4990774;28;95187;-59
2021/10/06 13:37:00;;;;;;;;;;;19.20;67.30;;;;;;4990401;28;95409;-49
2021/10/06 13:39:32;;;;;;;;;;;19.20;67.40;;;;;;4986849;28;96574;-60
2021/10/06 13:42:04;;;;;;;;;;;19.20;67.40;;;;;;4991149;28;96121;-59
2021/10/06 13:44:34;;;;;;;;;;;19.20;67.30;;;;;;4990729;28;95864;-60
2021/10/06 13:47:04;;;;;;;;;;;19.20;67.40;;;;;;4987000;28;95937;-63
2021/10/06 13:49:33;;;;;;;;;;;19.10;67.50;;;;;;4987761;28;95860;-60
2021/10/06 13:52:04;;;;;;;;;;;19.10;67.50;;;;;;4985345;28;97750;-60
2021/10/06 13:54:34;;;;;;;;;;;19.10;67.60;;;;;;4987913;28;95701;-60
2021/10/06 13:57:04;;;;;;;;;;;19.10;67.70;;;;;;4991746;28;95332;-48
2021/10/06 13:59:36;;;;;;;;;;;19.10;67.70;;;;;;4991501;28;96041;-61
2021/10/06 14:02:08;;;;;;;;;;;19.00;67.70;;;;;;4985665;28;96467;-61
2021/10/06 14:04:39;;;;;;;;;;;19.00;67.70;;;;;;4991348;28;95429;-61
2021/10/06 14:07:09;;;;;;;;;;;19.00;67.90;;;;;;4990263;28;95900;-61
2021/10/06 14:09:39;;;;;;;;;;;18.90;68.00;;;;;;4987500;28;95893;-61
2021/10/06 14:12:10;;;;;;;;;;;18.90;68.00;;;;;;4979268;28;95788;-61
2021/10/06 14:14:40;;;;;;;;;;;18.90;68.10;;;;;;4992714;28;95758;-60
2021/10/06 14:17:11;;;;;;;;;;;18.90;68.40;;;;;;4986226;28;95786;-48
2021/10/06 14:19:42;;;;;;;;;;;18.80;67.90;;;;;;5021563;27;95944;-48
2021/10/06 14:22:11;;;;;;;;;;;18.80;68.10;;;;;;4990148;28;95302;-61
2021/10/06 14:24:40;;;;;;;;;;;18.80;68.30;;;;;;4990041;28;96207;-60
2021/10/06 14:27:10;;;;;;;;;;;18.70;68.20;;;;;;4989664;28;96057;-60
2021/10/06 14:29:40;;;;;;;;;;;18.80;68.40;;;;;;4990418;28;95614;-61
2021/10/06 14:32:12;;;;;;;;;;;18.70;68.30;;;;;;4981439;28;95922;-60
2021/10/06 14:34:42;;;;;;;;;;;18.70;68.50;;;;;;5022450;27;95741;-60
2021/10/06 14:37:11;;;;;;;;;;;18.70;68.50;;;;;;4988861;28;95638;-61
2021/10/06 14:39:40;;;;;;;;;;;18.70;68.50;;;;;;4988601;28;97781;-49
2021/10/06 14:42:12;;;;;;;;;;;18.70;68.50;;;;;;4988222;28;95946;-62